Detalii statie COMAGRA BEREGSAU [00001994]

Toti senzorii

Date Temperatura solului [C]Precipitatii [mm]Voltaj baterie [mV]Leaf Wetness [Min]HC Air temperature [C]HC Relative humidity [%]Punctul de roua [C]
medieminmaxsumaultimatimpmedieminmaxmediemediemin
2018-08-12 11:00:00 22.4 22.3 22.6 0 7166 27.07 25.33 28.44 54.18 16.8 16.1
2018-08-12 12:00:00 22.5 22.5 22.8 0 7186 29.51 28.62 30.85 48.44 17.2 16.7
2018-08-12 13:00:00 23.4 22.9 24.1 0 7186 30.43 29.88 31.27 47.67 17.9 17.3
2018-08-12 14:00:00 24.7 24.1 25.3 0 7186 31.69 30.82 32.9 44.62 17.9 17.1
2018-08-12 15:00:00 25.9 25.4 26.4 0 7186 32.22 31.35 33.47 42.06 17.4 16.8
2018-08-12 16:00:00 26.6 26.4 26.8 0 7186 32.72 32.09 33.37 38.9 16.6 15.9
2018-08-12 17:00:00 26.9 26.8 27.1 0 7186 32.48 32.09 33.03 38.52 16.2 15.8
2018-08-12 18:00:00 26.8 26.7 27 0 7186 31.3 30.38 31.83 42.62 16.8 16
2018-08-12 19:00:00 26.6 26.5 26.8 0 7080 29.89 28.79 30.73 50.39 18.2 17.4
2018-08-12 20:00:00 26.4 26.2 26.6 0 6894 27.49 26.73 28.61 58.93 18.5 18.4
2018-08-12 21:00:00 26 25.9 26.2 0 6826 24.78 23.99 26.38 71.04 18.9 18.4
2018-08-12 22:00:00 25.6 25.4 25.9 0 6806 22.58 21.75 23.9 85.25 19.8 19.3
2018-08-12 23:00:00 25.2 25.1 25.5 0 6796 22.03 21.53 22.3 84.49 19.1 19
2018-08-13 00:00:00 24.8 24.7 25.1 0 6796 20.55 19.93 21.45 94.13 19.4 19.2
2018-08-13 01:00:00 24.5 24.3 24.7 0 6786 19.79 19.63 19.98 99.8 19.6 19.5
2018-08-13 02:00:00 24.1 23.9 24.4 0 6786 19.3 18.96 19.7 99.98 19.2 18.9
2018-08-13 03:00:00 23.8 23.7 24 0 6786 18.4 17.82 19.01 100 18.3 17.8
2018-08-13 04:00:00 23.5 23.4 23.8 0 6776 17.84 17.71 17.99 100 17.7 17.7
2018-08-13 05:00:00 23.2 23 23.5 0 6766 17.66 17.38 17.79 100 17.6 17.3
2018-08-13 06:00:00 22.9 22.8 23.1 0 6756 17.49 17.33 17.58 100 17.4 17.3
2018-08-13 07:00:00 22.7 22.5 22.9 0 6806 18.11 17.56 19.14 100 18 17.5
2018-08-13 08:00:00 22.5 22.3 22.7 0 6854 20.41 19.3 22.33 98.43 20.1 19.3
2018-08-13 09:00:00 22.5 22.5 22.6 0 6922 23.77 22.47 25.47 78.69 19.6 18.8
2018-08-13 10:00:00 22.4 22.3 22.6 0 6982 26.83 25.49 28.21 61.84 18.6 16.8
2018-08-13 11:00:00 22.5 22.5 22.6 0 7080 29.54 28.39 30.31 43.18 15.4 14
2018-08-13 12:00:00 22.7 22.5 23 0 7186 31.21 30.5 32.4 35.03 13.7 12.7
2018-08-13 13:00:00 23.6 23 24.3 0 7186 32.42 31.56 33.71 32.83 13.7 12.8
2018-08-13 14:00:00 24.9 24.4 25.6 0 7186 33.03 32.65 33.41 30.27 13 12.6
2018-08-13 15:00:00 26 25.5 26.4 0 7186 33.36 33.18 33.59 30.58 13.4 12.8
2018-08-13 16:00:00 26.6 26.3 27 0 7186 33.51 33.24 33.86 29.14 12.7 12.2
2018-08-13 17:00:00 26.9 26.9 27.1 0 7186 33.36 33.1 33.62 29.28 12.8 12.3
2018-08-13 18:00:00 26.8 26.7 27.1 0 7186 33.01 32.37 33.52 32 13.7 12.9
2018-08-13 19:00:00 26.7 26.5 26.8 0 7176 31.17 29.79 32.26 37.17 14.5 13.4
2018-08-13 20:00:00 26.4 26.2 26.7 0 6894 26 23.57 29 51.23 14.9 14.6
2018-08-13 21:00:00 26 25.9 26.2 0 6826 22.59 22 23.36 63.37 15.1 14.7
2018-08-13 22:00:00 25.5 25.3 25.7 0 6806 21.16 20.68 21.89 71.94 15.7 15.4
2018-08-13 23:00:00 25.1 24.9 25.5 0 6796 20.32 20.11 20.63 77.33 16 15.8
2018-08-14 00:00:00 24.7 24.5 24.9 0 6786 19.72 19.4 20.06 81.25 16.2 16
2018-08-14 01:00:00 24.2 24 24.6 0 6786 18.96 18.26 19.6 86.26 16.4 16.1
2018-08-14 02:00:00 23.9 23.6 24.1 0 6776 18.23 18 18.46 92.85 16.9 16.7
2018-08-14 03:00:00 23.6 23.4 23.8 0 6766 17.84 17.58 18.04 95.55 17 16.8
2018-08-14 04:00:00 23.3 23.2 23.5 0 6756 17.57 17.21 17.81 97.47 17 16.9
2018-08-14 05:00:00 22.9 22.6 23.2 0 6748 17.15 16.95 17.5 98.7 16.8 16.7
2018-08-14 06:00:00 22.7 22.5 23 0 6738 16.92 16.58 17.25 99.03 16.6 16.5
2018-08-14 07:00:00 22.4 22.3 22.7 0 6796 18.04 16.91 19.44 94.62 17 16.7
2018-08-14 08:00:00 22.2 22.1 22.4 0 6874 20.41 19.57 21.28 83.97 17.4 17.2
2018-08-14 09:00:00 22.2 22 22.3 0 6972 23.24 21.39 24.74 66.77 16.4 15.8
2018-08-14 10:00:00 22.2 22.1 22.3 0 7148 26.83 25.06 28.72 51.2 15.7 15.3